sensor_id;sensor_type;location;lat;lon;timestamp;P1;durP1;ratioP1;P2;durP2;ratioP2
9306;SDS011;4691;47.612;7.610;2023-05-10T00:00:10;3.22;;;1.88;;
9306;SDS011;4691;47.612;7.610;2023-05-10T00:02:35;4.13;;;1.80;;
9306;SDS011;4691;47.612;7.610;2023-05-10T00:05:01;2.38;;;1.50;;
9306;SDS011;4691;47.612;7.610;2023-05-10T00:07:26;2.33;;;1.60;;
9306;SDS011;4691;47.612;7.610;2023-05-10T00:09:51;3.42;;;1.67;;
9306;SDS011;4691;47.612;7.610;2023-05-10T00:12:17;3.00;;;1.92;;
9306;SDS011;4691;47.612;7.610;2023-05-10T00:14:42;3.90;;;1.80;;
9306;SDS011;4691;47.612;7.610;2023-05-10T00:17:07;2.25;;;1.60;;
9306;SDS011;4691;47.612;7.610;2023-05-10T00:19:33;3.22;;;1.65;;
9306;SDS011;4691;47.612;7.610;2023-05-10T00:21:58;1.95;;;1.65;;
9306;SDS011;4691;47.612;7.610;2023-05-10T00:24:23;2.28;;;1.50;;
9306;SDS011;4691;47.612;7.610;2023-05-10T00:26:48;2.05;;;1.58;;
9306;SDS011;4691;47.612;7.610;2023-05-10T00:29:14;2.45;;;1.70;;
9306;SDS011;4691;47.612;7.610;2023-05-10T00:31:39;3.15;;;1.60;;
9306;SDS011;4691;47.612;7.610;2023-05-10T00:34:04;2.35;;;1.70;;
9306;SDS011;4691;47.612;7.610;2023-05-10T00:36:29;2.72;;;1.80;;
9306;SDS011;4691;47.612;7.610;2023-05-10T00:38:56;4.13;;;1.80;;
9306;SDS011;4691;47.612;7.610;2023-05-10T00:41:21;4.65;;;1.80;;
9306;SDS011;4691;47.612;7.610;2023-05-10T00:43:46;2.28;;;1.70;;
9306;SDS011;4691;47.612;7.610;2023-05-10T00:46:12;7.50;;;1.60;;
9306;SDS011;4691;47.612;7.610;2023-05-10T00:48:40;7.13;;;1.85;;
9306;SDS011;4691;47.612;7.610;2023-05-10T00:51:05;2.08;;;1.67;;
9306;SDS011;4691;47.612;7.610;2023-05-10T00:53:31;2.42;;;1.52;;
9306;SDS011;4691;47.612;7.610;2023-05-10T00:55:57;3.75;;;1.80;;
9306;SDS011;4691;47.612;7.610;2023-05-10T00:58:24;1.77;;;1.67;;
9306;SDS011;4691;47.612;7.610;2023-05-10T01:00:53;4.13;;;1.67;;
9306;SDS011;4691;47.612;7.610;2023-05-10T01:03:19;2.05;;;1.70;;
9306;SDS011;4691;47.612;7.610;2023-05-10T01:05:45;2.80;;;1.80;;
9306;SDS011;4691;47.612;7.610;2023-05-10T01:08:10;2.75;;;1.67;;
9306;SDS011;4691;47.612;7.610;2023-05-10T01:10:36;8.45;;;2.00;;
9306;SDS011;4691;47.612;7.610;2023-05-10T01:13:02;2.00;;;1.77;;
9306;SDS011;4691;47.612;7.610;2023-05-10T01:15:28;2.38;;;1.80;;
9306;SDS011;4691;47.612;7.610;2023-05-10T01:17:54;3.05;;;1.90;;
9306;SDS011;4691;47.612;7.610;2023-05-10T01:20:21;1.98;;;1.65;;
9306;SDS011;4691;47.612;7.610;2023-05-10T01:25:57;2.20;;;1.92;;
9306;SDS011;4691;47.612;7.610;2023-05-10T01:31:17;2.58;;;1.83;;
9306;SDS011;4691;47.612;7.610;2023-05-10T01:33:56;8.45;;;2.15;;
9306;SDS011;4691;47.612;7.610;2023-05-10T01:42:36;4.97;;;1.95;;
9306;SDS011;4691;47.612;7.610;2023-05-10T01:47:35;2.17;;;1.90;;
9306;SDS011;4691;47.612;7.610;2023-05-10T01:50:38;4.63;;;2.10;;
9306;SDS011;4691;47.612;7.610;2023-05-10T01:53:08;1.95;;;1.83;;
9306;SDS011;4691;47.612;7.610;2023-05-10T01:55:38;2.30;;;2.00;;
9306;SDS011;4691;47.612;7.610;2023-05-10T01:58:09;9.27;;;2.35;;
9306;SDS011;4691;47.612;7.610;2023-05-10T02:00:39;2.78;;;1.90;;
9306;SDS011;4691;47.612;7.610;2023-05-10T02:03:08;5.75;;;2.30;;
9306;SDS011;4691;47.612;7.610;2023-05-10T02:05:35;3.83;;;2.30;;
9306;SDS011;4691;47.612;7.610;2023-05-10T02:08:03;2.65;;;2.35;;
9306;SDS011;4691;47.612;7.610;2023-05-10T02:10:32;2.80;;;2.03;;
9306;SDS011;4691;47.612;7.610;2023-05-10T02:12:59;3.67;;;1.60;;
9306;SDS011;4691;47.612;7.610;2023-05-10T02:15:25;5.93;;;2.13;;
9306;SDS011;4691;47.612;7.610;2023-05-10T02:19:31;3.95;;;2.20;;
9306;SDS011;4691;47.612;7.610;2023-05-10T02:21:58;2.45;;;2.03;;
9306;SDS011;4691;47.612;7.610;2023-05-10T02:24:25;2.90;;;2.10;;
9306;SDS011;4691;47.612;7.610;2023-05-10T02:26:53;4.53;;;2.50;;
9306;SDS011;4691;47.612;7.610;2023-05-10T02:29:21;3.67;;;2.10;;
9306;SDS011;4691;47.612;7.610;2023-05-10T02:31:48;4.25;;;2.00;;
9306;SDS011;4691;47.612;7.610;2023-05-10T02:34:16;3.42;;;2.22;;
9306;SDS011;4691;47.612;7.610;2023-05-10T02:36:41;4.25;;;2.00;;
9306;SDS011;4691;47.612;7.610;2023-05-10T02:39:07;2.53;;;2.03;;
9306;SDS011;4691;47.612;7.610;2023-05-10T02:44:03;5.03;;;2.10;;
9306;SDS011;4691;47.612;7.610;2023-05-10T02:48:58;3.55;;;2.00;;
9306;SDS011;4691;47.612;7.610;2023-05-10T02:51:24;3.33;;;2.42;;
9306;SDS011;4691;47.612;7.610;2023-05-10T02:53:53;3.45;;;2.08;;
9306;SDS011;4691;47.612;7.610;2023-05-10T02:56:23;3.53;;;2.70;;
9306;SDS011;4691;47.612;7.610;2023-05-10T02:58:53;3.33;;;2.50;;
9306;SDS011;4691;47.612;7.610;2023-05-10T03:01:19;4.72;;;2.13;;
9306;SDS011;4691;47.612;7.610;2023-05-10T03:03:45;7.97;;;2.10;;
9306;SDS011;4691;47.612;7.610;2023-05-10T03:06:10;5.47;;;2.28;;
9306;SDS011;4691;47.612;7.610;2023-05-10T03:08:35;7.20;;;1.98;;
9306;SDS011;4691;47.612;7.610;2023-05-10T03:16:16;4.70;;;2.38;;
9306;SDS011;4691;47.612;7.610;2023-05-10T03:18:54;3.05;;;2.25;;
9306;SDS011;4691;47.612;7.610;2023-05-10T03:21:26;3.67;;;2.20;;
9306;SDS011;4691;47.612;7.610;2023-05-10T03:23:58;2.97;;;2.00;;
9306;SDS011;4691;47.612;7.610;2023-05-10T03:26:30;1.95;;;1.70;;
9306;SDS011;4691;47.612;7.610;2023-05-10T03:28:56;3.92;;;2.10;;
9306;SDS011;4691;47.612;7.610;2023-05-10T03:31:24;3.30;;;1.90;;
9306;SDS011;4691;47.612;7.610;2023-05-10T03:33:49;2.45;;;1.73;;
9306;SDS011;4691;47.612;7.610;2023-05-10T03:36:16;6.90;;;2.03;;
9306;SDS011;4691;47.612;7.610;2023-05-10T03:38:42;2.40;;;1.55;;
9306;SDS011;4691;47.612;7.610;2023-05-10T03:41:07;2.28;;;2.00;;
9306;SDS011;4691;47.612;7.610;2023-05-10T03:43:32;6.43;;;1.90;;
9306;SDS011;4691;47.612;7.610;2023-05-10T03:45:58;4.88;;;2.00;;
9306;SDS011;4691;47.612;7.610;2023-05-10T03:48:23;3.58;;;1.92;;
9306;SDS011;4691;47.612;7.610;2023-05-10T03:50:49;4.15;;;2.03;;
9306;SDS011;4691;47.612;7.610;2023-05-10T03:53:14;4.15;;;1.77;;
9306;SDS011;4691;47.612;7.610;2023-05-10T03:55:40;5.30;;;1.98;;
9306;SDS011;4691;47.612;7.610;2023-05-10T03:58:05;3.28;;;1.70;;
9306;SDS011;4691;47.612;7.610;2023-05-10T04:00:31;5.57;;;1.95;;
9306;SDS011;4691;47.612;7.610;2023-05-10T04:02:57;1.70;;;1.33;;
9306;SDS011;4691;47.612;7.610;2023-05-10T04:05:22;3.38;;;1.70;;
9306;SDS011;4691;47.612;7.610;2023-05-10T04:07:47;3.28;;;1.70;;
9306;SDS011;4691;47.612;7.610;2023-05-10T04:10:14;1.75;;;1.50;;
9306;SDS011;4691;47.612;7.610;2023-05-10T04:12:41;3.47;;;1.63;;
9306;SDS011;4691;47.612;7.610;2023-05-10T04:15:06;3.25;;;1.92;;
9306;SDS011;4691;47.612;7.610;2023-05-10T04:17:32;1.95;;;1.60;;
9306;SDS011;4691;47.612;7.610;2023-05-10T04:19:58;2.17;;;1.60;;
9306;SDS011;4691;47.612;7.610;2023-05-10T04:22:23;4.93;;;1.80;;
9306;SDS011;4691;47.612;7.610;2023-05-10T04:24:48;7.70;;;1.88;;
9306;SDS011;4691;47.612;7.610;2023-05-10T04:27:14;4.07;;;2.10;;
9306;SDS011;4691;47.612;7.610;2023-05-10T04:29:39;3.28;;;1.90;;
9306;SDS011;4691;47.612;7.610;2023-05-10T04:32:04;2.15;;;1.80;;
9306;SDS011;4691;47.612;7.610;2023-05-10T04:34:30;5.97;;;1.80;;
9306;SDS011;4691;47.612;7.610;2023-05-10T04:36:55;2.50;;;1.80;;
9306;SDS011;4691;47.612;7.610;2023-05-10T04:39:20;2.83;;;2.03;;
9306;SDS011;4691;47.612;7.610;2023-05-10T04:41:45;5.72;;;1.83;;
9306;SDS011;4691;47.612;7.610;2023-05-10T04:44:11;2.45;;;1.75;;
9306;SDS011;4691;47.612;7.610;2023-05-10T04:46:36;4.22;;;1.50;;
9306;SDS011;4691;47.612;7.610;2023-05-10T04:49:01;5.55;;;2.03;;
9306;SDS011;4691;47.612;7.610;2023-05-10T04:51:27;5.82;;;1.60;;
9306;SDS011;4691;47.612;7.610;2023-05-10T04:53:52;3.15;;;1.70;;
9306;SDS011;4691;47.612;7.610;2023-05-10T04:56:17;5.35;;;2.08;;
9306;SDS011;4691;47.612;7.610;2023-05-10T04:58:43;2.88;;;1.70;;
9306;SDS011;4691;47.612;7.610;2023-05-10T05:01:08;7.50;;;2.28;;
9306;SDS011;4691;47.612;7.610;2023-05-10T05:03:35;5.13;;;3.00;;
9306;SDS011;4691;47.612;7.610;2023-05-10T05:06:01;8.43;;;2.67;;
9306;SDS011;4691;47.612;7.610;2023-05-10T05:08:26;3.92;;;2.50;;
9306;SDS011;4691;47.612;7.610;2023-05-10T05:10:51;3.45;;;2.15;;
9306;SDS011;4691;47.612;7.610;2023-05-10T05:13:17;3.72;;;1.90;;
9306;SDS011;4691;47.612;7.610;2023-05-10T05:15:43;4.35;;;1.73;;
9306;SDS011;4691;47.612;7.610;2023-05-10T05:18:08;3.88;;;1.90;;
9306;SDS011;4691;47.612;7.610;2023-05-10T05:20:33;4.82;;;2.20;;
9306;SDS011;4691;47.612;7.610;2023-05-10T05:22:59;6.53;;;1.80;;
9306;SDS011;4691;47.612;7.610;2023-05-10T05:25:24;6.57;;;2.00;;
9306;SDS011;4691;47.612;7.610;2023-05-10T05:27:50;5.10;;;1.92;;
9306;SDS011;4691;47.612;7.610;2023-05-10T05:30:15;2.75;;;1.60;;
9306;SDS011;4691;47.612;7.610;2023-05-10T05:32:40;3.47;;;2.10;;
9306;SDS011;4691;47.612;7.610;2023-05-10T05:35:06;5.18;;;2.53;;
9306;SDS011;4691;47.612;7.610;2023-05-10T05:37:32;5.57;;;2.30;;
9306;SDS011;4691;47.612;7.610;2023-05-10T05:39:57;4.90;;;2.20;;
9306;SDS011;4691;47.612;7.610;2023-05-10T05:42:22;5.25;;;2.47;;
9306;SDS011;4691;47.612;7.610;2023-05-10T05:44:48;4.43;;;2.40;;
9306;SDS011;4691;47.612;7.610;2023-05-10T05:47:13;4.10;;;2.42;;
9306;SDS011;4691;47.612;7.610;2023-05-10T05:49:38;5.20;;;3.05;;
9306;SDS011;4691;47.612;7.610;2023-05-10T05:52:04;7.03;;;2.60;;
9306;SDS011;4691;47.612;7.610;2023-05-10T05:54:30;4.10;;;2.80;;
9306;SDS011;4691;47.612;7.610;2023-05-10T05:56:59;3.67;;;2.85;;
9306;SDS011;4691;47.612;7.610;2023-05-10T05:59:25;6.32;;;3.33;;
9306;SDS011;4691;47.612;7.610;2023-05-10T06:01:51;5.35;;;3.15;;
9306;SDS011;4691;47.612;7.610;2023-05-10T06:04:16;7.68;;;3.63;;
9306;SDS011;4691;47.612;7.610;2023-05-10T06:06:42;7.70;;;3.50;;
9306;SDS011;4691;47.612;7.610;2023-05-10T06:09:07;11.30;;;3.17;;
9306;SDS011;4691;47.612;7.610;2023-05-10T06:11:33;6.90;;;3.13;;
9306;SDS011;4691;47.612;7.610;2023-05-10T06:13:59;5.65;;;3.20;;
9306;SDS011;4691;47.612;7.610;2023-05-10T06:16:25;7.38;;;3.58;;
9306;SDS011;4691;47.612;7.610;2023-05-10T06:18:50;6.40;;;3.58;;
9306;SDS011;4691;47.612;7.610;2023-05-10T06:21:16;8.45;;;3.40;;
9306;SDS011;4691;47.612;7.610;2023-05-10T06:23:41;9.98;;;3.53;;
9306;SDS011;4691;47.612;7.610;2023-05-10T06:26:07;6.57;;;3.17;;
9306;SDS011;4691;47.612;7.610;2023-05-10T06:28:32;7.53;;;2.85;;
9306;SDS011;4691;47.612;7.610;2023-05-10T06:30:58;8.95;;;3.15;;
9306;SDS011;4691;47.612;7.610;2023-05-10T06:33:24;7.55;;;3.15;;
9306;SDS011;4691;47.612;7.610;2023-05-10T06:35:49;7.32;;;3.20;;
9306;SDS011;4691;47.612;7.610;2023-05-10T06:38:14;5.05;;;2.60;;
9306;SDS011;4691;47.612;7.610;2023-05-10T06:40:43;6.60;;;3.10;;
9306;SDS011;4691;47.612;7.610;2023-05-10T06:43:08;7.53;;;3.35;;
9306;SDS011;4691;47.612;7.610;2023-05-10T06:45:34;6.65;;;2.70;;
9306;SDS011;4691;47.612;7.610;2023-05-10T06:48:00;7.47;;;3.03;;
9306;SDS011;4691;47.612;7.610;2023-05-10T06:50:25;6.40;;;2.72;;
9306;SDS011;4691;47.612;7.610;2023-05-10T06:52:51;4.15;;;2.70;;
9306;SDS011;4691;47.612;7.610;2023-05-10T06:55:16;6.78;;;2.53;;
9306;SDS011;4691;47.612;7.610;2023-05-10T06:57:42;8.65;;;2.47;;
9306;SDS011;4691;47.612;7.610;2023-05-10T07:00:07;7.78;;;2.90;;
9306;SDS011;4691;47.612;7.610;2023-05-10T07:02:34;6.18;;;2.53;;
9306;SDS011;4691;47.612;7.610;2023-05-10T07:05:00;7.82;;;2.38;;
9306;SDS011;4691;47.612;7.610;2023-05-10T07:07:25;3.22;;;2.28;;
9306;SDS011;4691;47.612;7.610;2023-05-10T07:09:50;8.68;;;2.83;;
9306;SDS011;4691;47.612;7.610;2023-05-10T07:12:16;3.13;;;2.10;;
9306;SDS011;4691;47.612;7.610;2023-05-10T07:14:41;7.50;;;2.70;;
9306;SDS011;4691;47.612;7.610;2023-05-10T07:17:07;8.98;;;2.55;;
9306;SDS011;4691;47.612;7.610;2023-05-10T07:19:32;4.05;;;2.13;;
9306;SDS011;4691;47.612;7.610;2023-05-10T07:21:57;5.57;;;2.58;;
9306;SDS011;4691;47.612;7.610;2023-05-10T07:24:23;6.60;;;2.30;;
9306;SDS011;4691;47.612;7.610;2023-05-10T07:26:49;9.00;;;2.58;;
9306;SDS011;4691;47.612;7.610;2023-05-10T07:29:14;5.78;;;2.95;;
9306;SDS011;4691;47.612;7.610;2023-05-10T07:31:40;6.72;;;3.28;;
9306;SDS011;4691;47.612;7.610;2023-05-10T07:34:06;6.35;;;2.10;;
9306;SDS011;4691;47.612;7.610;2023-05-10T07:36:32;9.05;;;2.63;;
9306;SDS011;4691;47.612;7.610;2023-05-10T07:38:57;8.25;;;2.22;;
9306;SDS011;4691;47.612;7.610;2023-05-10T07:41:23;7.70;;;2.90;;
9306;SDS011;4691;47.612;7.610;2023-05-10T07:43:48;6.95;;;2.38;;
9306;SDS011;4691;47.612;7.610;2023-05-10T07:46:13;4.28;;;2.30;;
9306;SDS011;4691;47.612;7.610;2023-05-10T07:48:39;5.90;;;2.42;;
9306;SDS011;4691;47.612;7.610;2023-05-10T07:51:04;5.40;;;2.50;;
9306;SDS011;4691;47.612;7.610;2023-05-10T07:53:31;6.15;;;2.38;;
9306;SDS011;4691;47.612;7.610;2023-05-10T07:55:57;5.50;;;2.10;;
9306;SDS011;4691;47.612;7.610;2023-05-10T07:58:23;7.60;;;2.13;;
9306;SDS011;4691;47.612;7.610;2023-05-10T08:00:49;6.95;;;2.15;;
9306;SDS011;4691;47.612;7.610;2023-05-10T08:03:14;8.52;;;2.17;;
9306;SDS011;4691;47.612;7.610;2023-05-10T08:05:39;7.00;;;2.38;;
9306;SDS011;4691;47.612;7.610;2023-05-10T08:08:05;4.25;;;2.60;;
9306;SDS011;4691;47.612;7.610;2023-05-10T08:10:31;6.47;;;2.20;;
9306;SDS011;4691;47.612;7.610;2023-05-10T08:12:56;5.47;;;1.90;;
9306;SDS011;4691;47.612;7.610;2023-05-10T08:15:23;7.30;;;2.20;;
9306;SDS011;4691;47.612;7.610;2023-05-10T08:17:48;6.05;;;3.03;;
9306;SDS011;4691;47.612;7.610;2023-05-10T08:20:14;6.18;;;2.40;;
9306;SDS011;4691;47.612;7.610;2023-05-10T08:22:41;5.72;;;2.05;;
9306;SDS011;4691;47.612;7.610;2023-05-10T08:25:07;10.85;;;2.20;;
9306;SDS011;4691;47.612;7.610;2023-05-10T08:27:33;3.80;;;2.47;;
9306;SDS011;4691;47.612;7.610;2023-05-10T08:29:58;4.18;;;2.05;;
9306;SDS011;4691;47.612;7.610;2023-05-10T08:32:23;10.73;;;2.58;;
9306;SDS011;4691;47.612;7.610;2023-05-10T08:34:48;3.28;;;1.90;;
9306;SDS011;4691;47.612;7.610;2023-05-10T08:37:14;7.38;;;2.13;;
9306;SDS011;4691;47.612;7.610;2023-05-10T08:39:39;6.03;;;2.03;;
9306;SDS011;4691;47.612;7.610;2023-05-10T08:42:05;11.30;;;2.00;;
9306;SDS011;4691;47.612;7.610;2023-05-10T08:44:34;7.00;;;2.08;;
9306;SDS011;4691;47.612;7.610;2023-05-10T08:47:06;4.57;;;1.70;;
9306;SDS011;4691;47.612;7.610;2023-05-10T08:49:33;4.85;;;1.98;;
9306;SDS011;4691;47.612;7.610;2023-05-10T08:51:59;3.38;;;1.60;;
9306;SDS011;4691;47.612;7.610;2023-05-10T08:54:28;7.32;;;1.65;;
9306;SDS011;4691;47.612;7.610;2023-05-10T08:56:55;4.82;;;1.60;;
9306;SDS011;4691;47.612;7.610;2023-05-10T08:59:21;4.43;;;1.77;;
9306;SDS011;4691;47.612;7.610;2023-05-10T09:01:46;4.47;;;1.33;;
9306;SDS011;4691;47.612;7.610;2023-05-10T09:04:14;2.83;;;1.58;;
9306;SDS011;4691;47.612;7.610;2023-05-10T09:06:39;3.03;;;1.40;;
9306;SDS011;4691;47.612;7.610;2023-05-10T09:09:04;5.15;;;1.80;;
9306;SDS011;4691;47.612;7.610;2023-05-10T09:11:30;5.18;;;1.65;;
9306;SDS011;4691;47.612;7.610;2023-05-10T09:13:56;5.57;;;1.95;;
9306;SDS011;4691;47.612;7.610;2023-05-10T09:16:22;7.03;;;1.60;;
9306;SDS011;4691;47.612;7.610;2023-05-10T09:18:48;6.25;;;1.50;;
9306;SDS011;4691;47.612;7.610;2023-05-10T09:21:14;4.18;;;1.50;;
9306;SDS011;4691;47.612;7.610;2023-05-10T09:23:42;3.65;;;1.50;;
9306;SDS011;4691;47.612;7.610;2023-05-10T09:26:08;5.55;;;1.60;;
9306;SDS011;4691;47.612;7.610;2023-05-10T09:28:34;7.75;;;1.67;;
9306;SDS011;4691;47.612;7.610;2023-05-10T09:31:14;5.78;;;1.75;;
9306;SDS011;4691;47.612;7.610;2023-05-10T09:33:46;5.50;;;1.40;;
9306;SDS011;4691;47.612;7.610;2023-05-10T09:36:15;4.25;;;1.52;;
9306;SDS011;4691;47.612;7.610;2023-05-10T09:38:59;4.25;;;1.55;;
9306;SDS011;4691;47.612;7.610;2023-05-10T09:41:25;8.35;;;1.52;;
9306;SDS011;4691;47.612;7.610;2023-05-10T09:43:52;4.85;;;1.40;;
9306;SDS011;4691;47.612;7.610;2023-05-10T09:46:21;4.95;;;1.52;;
9306;SDS011;4691;47.612;7.610;2023-05-10T09:48:47;5.65;;;1.58;;
9306;SDS011;4691;47.612;7.610;2023-05-10T09:51:24;1.85;;;1.33;;
9306;SDS011;4691;47.612;7.610;2023-05-10T09:56:35;2.72;;;1.50;;
9306;SDS011;4691;47.612;7.610;2023-05-10T09:59:02;3.72;;;1.40;;
9306;SDS011;4691;47.612;7.610;2023-05-10T10:01:28;4.88;;;1.90;;
9306;SDS011;4691;47.612;7.610;2023-05-10T10:03:54;7.75;;;1.45;;
9306;SDS011;4691;47.612;7.610;2023-05-10T10:06:19;5.97;;;1.90;;
9306;SDS011;4691;47.612;7.610;2023-05-10T10:08:45;9.10;;;1.80;;
9306;SDS011;4691;47.612;7.610;2023-05-10T10:11:11;2.83;;;1.50;;
9306;SDS011;4691;47.612;7.610;2023-05-10T10:13:36;4.57;;;1.50;;
9306;SDS011;4691;47.612;7.610;2023-05-10T10:16:02;2.90;;;1.40;;
9306;SDS011;4691;47.612;7.610;2023-05-10T10:18:27;7.22;;;1.55;;
9306;SDS011;4691;47.612;7.610;2023-05-10T10:20:55;4.90;;;1.80;;
9306;SDS011;4691;47.612;7.610;2023-05-10T10:23:21;4.13;;;1.33;;
9306;SDS011;4691;47.612;7.610;2023-05-10T10:25:46;4.05;;;1.58;;
9306;SDS011;4691;47.612;7.610;2023-05-10T10:30:51;3.63;;;1.67;;
9306;SDS011;4691;47.612;7.610;2023-05-10T10:36:42;8.77;;;1.55;;
9306;SDS011;4691;47.612;7.610;2023-05-10T10:39:10;6.60;;;1.60;;
9306;SDS011;4691;47.612;7.610;2023-05-10T10:41:38;13.15;;;2.00;;
9306;SDS011;4691;47.612;7.610;2023-05-10T10:52:27;8.25;;;1.85;;
9306;SDS011;4691;47.612;7.610;2023-05-10T11:03:05;6.85;;;2.13;;
9306;SDS011;4691;47.612;7.610;2023-05-10T11:10:32;3.60;;;1.98;;
9306;SDS011;4691;47.612;7.610;2023-05-10T11:13:08;5.50;;;1.98;;
9306;SDS011;4691;47.612;7.610;2023-05-10T11:15:38;8.45;;;1.88;;
9306;SDS011;4691;47.612;7.610;2023-05-10T11:20:43;8.57;;;2.25;;
9306;SDS011;4691;47.612;7.610;2023-05-10T11:23:12;5.97;;;1.73;;
9306;SDS011;4691;47.612;7.610;2023-05-10T11:25:41;5.65;;;1.70;;
9306;SDS011;4691;47.612;7.610;2023-05-10T11:28:08;5.80;;;1.65;;
9306;SDS011;4691;47.612;7.610;2023-05-10T11:30:33;7.93;;;1.70;;
9306;SDS011;4691;47.612;7.610;2023-05-10T11:32:58;6.88;;;1.90;;
9306;SDS011;4691;47.612;7.610;2023-05-10T11:35:24;6.15;;;1.70;;
9306;SDS011;4691;47.612;7.610;2023-05-10T11:37:52;4.45;;;1.70;;
9306;SDS011;4691;47.612;7.610;2023-05-10T11:40:18;4.05;;;1.50;;
9306;SDS011;4691;47.612;7.610;2023-05-10T11:42:44;6.47;;;1.88;;
9306;SDS011;4691;47.612;7.610;2023-05-10T11:45:10;6.93;;;1.65;;
9306;SDS011;4691;47.612;7.610;2023-05-10T11:47:36;4.95;;;1.77;;
9306;SDS011;4691;47.612;7.610;2023-05-10T11:50:02;3.92;;;1.65;;
9306;SDS011;4691;47.612;7.610;2023-05-10T11:52:27;4.35;;;1.50;;
9306;SDS011;4691;47.612;7.610;2023-05-10T11:54:54;9.10;;;1.50;;
9306;SDS011;4691;47.612;7.610;2023-05-10T11:57:20;2.80;;;1.50;;
9306;SDS011;4691;47.612;7.610;2023-05-10T11:59:54;5.40;;;1.10;;
9306;SDS011;4691;47.612;7.610;2023-05-10T12:04:46;3.57;;;1.53;;
9306;SDS011;4691;47.612;7.610;2023-05-10T12:07:11;4.65;;;1.80;;
9306;SDS011;4691;47.612;7.610;2023-05-10T12:09:37;9.10;;;1.70;;
9306;SDS011;4691;47.612;7.610;2023-05-10T12:12:08;3.65;;;1.60;;
9306;SDS011;4691;47.612;7.610;2023-05-10T12:14:36;4.57;;;1.55;;
9306;SDS011;4691;47.612;7.610;2023-05-10T12:17:01;4.82;;;1.50;;
9306;SDS011;4691;47.612;7.610;2023-05-10T12:19:27;2.95;;;1.38;;
9306;SDS011;4691;47.612;7.610;2023-05-10T12:21:52;4.88;;;1.55;;
9306;SDS011;4691;47.612;7.610;2023-05-10T12:24:17;4.63;;;1.38;;
9306;SDS011;4691;47.612;7.610;2023-05-10T12:26:45;9.52;;;1.38;;
9306;SDS011;4691;47.612;7.610;2023-05-10T12:29:14;4.60;;;1.23;;
9306;SDS011;4691;47.612;7.610;2023-05-10T12:31:54;5.07;;;1.10;;
9306;SDS011;4691;47.612;7.610;2023-05-10T12:34:33;5.70;;;1.67;;
9306;SDS011;4691;47.612;7.610;2023-05-10T12:37:00;2.85;;;1.20;;
9306;SDS011;4691;47.612;7.610;2023-05-10T12:39:25;4.50;;;1.45;;
9306;SDS011;4691;47.612;7.610;2023-05-10T12:41:51;4.30;;;1.40;;
9306;SDS011;4691;47.612;7.610;2023-05-10T12:44:17;2.03;;;1.08;;
9306;SDS011;4691;47.612;7.610;2023-05-10T12:46:43;4.10;;;1.05;;
9306;SDS011;4691;47.612;7.610;2023-05-10T12:49:08;5.55;;;0.80;;
9306;SDS011;4691;47.612;7.610;2023-05-10T12:51:33;3.05;;;0.90;;
9306;SDS011;4691;47.612;7.610;2023-05-10T12:53:59;2.97;;;0.90;;
9306;SDS011;4691;47.612;7.610;2023-05-10T12:56:24;2.45;;;0.70;;
9306;SDS011;4691;47.612;7.610;2023-05-10T12:58:50;3.03;;;1.10;;
9306;SDS011;4691;47.612;7.610;2023-05-10T13:01:15;3.70;;;1.38;;
9306;SDS011;4691;47.612;7.610;2023-05-10T13:03:41;3.78;;;0.90;;
9306;SDS011;4691;47.612;7.610;2023-05-10T13:06:07;2.20;;;0.90;;
9306;SDS011;4691;47.612;7.610;2023-05-10T13:08:33;2.65;;;1.13;;
9306;SDS011;4691;47.612;7.610;2023-05-10T13:11:01;2.80;;;1.13;;
9306;SDS011;4691;47.612;7.610;2023-05-10T13:13:27;3.78;;;0.82;;
9306;SDS011;4691;47.612;7.610;2023-05-10T13:15:53;3.33;;;0.98;;
9306;SDS011;4691;47.612;7.610;2023-05-10T13:18:18;1.65;;;1.05;;
9306;SDS011;4691;47.612;7.610;2023-05-10T13:20:43;4.38;;;1.35;;
9306;SDS011;4691;47.612;7.610;2023-05-10T13:23:09;3.90;;;1.10;;
9306;SDS011;4691;47.612;7.610;2023-05-10T13:25:35;6.65;;;1.20;;
9306;SDS011;4691;47.612;7.610;2023-05-10T13:28:00;3.65;;;1.10;;
9306;SDS011;4691;47.612;7.610;2023-05-10T13:30:26;2.90;;;1.05;;
9306;SDS011;4691;47.612;7.610;2023-05-10T13:32:51;2.42;;;1.40;;
9306;SDS011;4691;47.612;7.610;2023-05-10T13:35:16;3.78;;;1.23;;
9306;SDS011;4691;47.612;7.610;2023-05-10T13:37:42;2.88;;;1.38;;
9306;SDS011;4691;47.612;7.610;2023-05-10T13:40:07;2.38;;;1.13;;
9306;SDS011;4691;47.612;7.610;2023-05-10T13:42:33;6.80;;;1.27;;
9306;SDS011;4691;47.612;7.610;2023-05-10T13:44:58;2.30;;;1.10;;
9306;SDS011;4691;47.612;7.610;2023-05-10T13:47:25;1.63;;;0.90;;
9306;SDS011;4691;47.612;7.610;2023-05-10T13:49:51;2.25;;;0.88;;
9306;SDS011;4691;47.612;7.610;2023-05-10T13:52:16;2.17;;;1.08;;
9306;SDS011;4691;47.612;7.610;2023-05-10T13:54:42;1.60;;;0.90;;
9306;SDS011;4691;47.612;7.610;2023-05-10T13:57:07;1.40;;;1.00;;
9306;SDS011;4691;47.612;7.610;2023-05-10T13:59:32;3.53;;;1.00;;
9306;SDS011;4691;47.612;7.610;2023-05-10T14:01:58;2.95;;;1.10;;
9306;SDS011;4691;47.612;7.610;2023-05-10T14:04:24;1.80;;;0.80;;
9306;SDS011;4691;47.612;7.610;2023-05-10T14:06:49;4.93;;;1.48;;
9306;SDS011;4691;47.612;7.610;2023-05-10T14:09:15;5.25;;;1.15;;
9306;SDS011;4691;47.612;7.610;2023-05-10T14:11:40;3.58;;;1.08;;
9306;SDS011;4691;47.612;7.610;2023-05-10T14:14:08;3.55;;;1.15;;
9306;SDS011;4691;47.612;7.610;2023-05-10T14:16:36;3.47;;;1.15;;
9306;SDS011;4691;47.612;7.610;2023-05-10T14:19:02;3.58;;;1.30;;
9306;SDS011;4691;47.612;7.610;2023-05-10T14:21:27;1.90;;;0.90;;
9306;SDS011;4691;47.612;7.610;2023-05-10T14:23:55;3.78;;;1.40;;
9306;SDS011;4691;47.612;7.610;2023-05-10T14:26:20;3.55;;;1.27;;
9306;SDS011;4691;47.612;7.610;2023-05-10T14:28:46;4.50;;;1.38;;
9306;SDS011;4691;47.612;7.610;2023-05-10T14:31:12;1.42;;;1.00;;
9306;SDS011;4691;47.612;7.610;2023-05-10T14:33:37;5.10;;;1.05;;
9306;SDS011;4691;47.612;7.610;2023-05-10T14:36:02;4.47;;;1.20;;
9306;SDS011;4691;47.612;7.610;2023-05-10T14:38:28;4.07;;;1.20;;
9306;SDS011;4691;47.612;7.610;2023-05-10T14:40:54;2.13;;;1.00;;
9306;SDS011;4691;47.612;7.610;2023-05-10T14:43:20;2.40;;;0.75;;
9306;SDS011;4691;47.612;7.610;2023-05-10T14:45:45;1.40;;;0.70;;
9306;SDS011;4691;47.612;7.610;2023-05-10T14:48:10;5.10;;;0.73;;
9306;SDS011;4691;47.612;7.610;2023-05-10T14:50:40;1.65;;;0.77;;
9306;SDS011;4691;47.612;7.610;2023-05-10T14:53:05;3.42;;;1.00;;
9306;SDS011;4691;47.612;7.610;2023-05-10T14:55:31;1.67;;;0.75;;
9306;SDS011;4691;47.612;7.610;2023-05-10T14:57:57;2.25;;;0.70;;
9306;SDS011;4691;47.612;7.610;2023-05-10T15:00:23;1.70;;;0.90;;
9306;SDS011;4691;47.612;7.610;2023-05-10T15:02:48;2.53;;;0.90;;
9306;SDS011;4691;47.612;7.610;2023-05-10T15:05:14;1.95;;;1.00;;
9306;SDS011;4691;47.612;7.610;2023-05-10T15:07:39;2.70;;;0.90;;
9306;SDS011;4691;47.612;7.610;2023-05-10T15:10:05;4.10;;;0.93;;
9306;SDS011;4691;47.612;7.610;2023-05-10T15:12:30;5.47;;;1.00;;
9306;SDS011;4691;47.612;7.610;2023-05-10T15:14:56;3.33;;;1.00;;
9306;SDS011;4691;47.612;7.610;2023-05-10T15:17:21;3.33;;;1.10;;
9306;SDS011;4691;47.612;7.610;2023-05-10T15:19:49;4.30;;;1.17;;
9306;SDS011;4691;47.612;7.610;2023-05-10T15:22:15;4.90;;;1.38;;
9306;SDS011;4691;47.612;7.610;2023-05-10T15:24:40;3.97;;;1.10;;
9306;SDS011;4691;47.612;7.610;2023-05-10T15:27:06;3.10;;;1.48;;
9306;SDS011;4691;47.612;7.610;2023-05-10T15:29:31;4.55;;;1.20;;
9306;SDS011;4691;47.612;7.610;2023-05-10T15:31:57;2.50;;;1.15;;
9306;SDS011;4691;47.612;7.610;2023-05-10T15:34:22;5.43;;;1.30;;
9306;SDS011;4691;47.612;7.610;2023-05-10T15:36:48;4.95;;;1.35;;
9306;SDS011;4691;47.612;7.610;2023-05-10T15:39:13;4.97;;;1.40;;
9306;SDS011;4691;47.612;7.610;2023-05-10T15:41:38;3.92;;;1.48;;
9306;SDS011;4691;47.612;7.610;2023-05-10T15:44:04;4.25;;;1.10;;
9306;SDS011;4691;47.612;7.610;2023-05-10T15:46:30;3.13;;;0.95;;
9306;SDS011;4691;47.612;7.610;2023-05-10T15:48:57;2.13;;;1.02;;
9306;SDS011;4691;47.612;7.610;2023-05-10T15:51:23;1.77;;;1.05;;
9306;SDS011;4691;47.612;7.610;2023-05-10T15:53:48;3.88;;;1.15;;
9306;SDS011;4691;47.612;7.610;2023-05-10T15:56:13;3.20;;;1.30;;
9306;SDS011;4691;47.612;7.610;2023-05-10T15:58:39;1.55;;;1.20;;
9306;SDS011;4691;47.612;7.610;2023-05-10T16:01:05;3.35;;;1.27;;
9306;SDS011;4691;47.612;7.610;2023-05-10T16:03:31;1.63;;;1.02;;
9306;SDS011;4691;47.612;7.610;2023-05-10T16:05:57;6.20;;;1.60;;
9306;SDS011;4691;47.612;7.610;2023-05-10T16:08:23;10.32;;;1.52;;
9306;SDS011;4691;47.612;7.610;2023-05-10T16:10:52;4.10;;;1.10;;